sensor_id;sensor_type;location;lat;lon;timestamp;P1;durP1;ratioP1;P2;durP2;ratioP2
12476;SDS011;6303;51.504;6.300;2022-12-19T00:00:42;6.95;;;6.20;;
12476;SDS011;6303;51.504;6.300;2022-12-19T00:03:10;6.93;;;5.65;;
12476;SDS011;6303;51.504;6.300;2022-12-19T00:05:38;7.63;;;6.28;;
12476;SDS011;6303;51.504;6.300;2022-12-19T00:08:06;9.65;;;7.10;;
12476;SDS011;6303;51.504;6.300;2022-12-19T00:10:38;8.27;;;6.47;;
12476;SDS011;6303;51.504;6.300;2022-12-19T00:13:05;7.70;;;6.80;;
12476;SDS011;6303;51.504;6.300;2022-12-19T00:15:33;10.23;;;7.63;;
12476;SDS011;6303;51.504;6.300;2022-12-19T00:18:01;8.02;;;6.80;;
12476;SDS011;6303;51.504;6.300;2022-12-19T00:20:30;9.25;;;7.38;;
12476;SDS011;6303;51.504;6.300;2022-12-19T00:22:57;9.27;;;7.13;;
12476;SDS011;6303;51.504;6.300;2022-12-19T00:25:24;8.48;;;6.95;;
12476;SDS011;6303;51.504;6.300;2022-12-19T00:27:51;7.85;;;6.57;;
12476;SDS011;6303;51.504;6.300;2022-12-19T00:30:18;7.65;;;6.70;;
12476;SDS011;6303;51.504;6.300;2022-12-19T00:32:45;9.25;;;6.50;;
12476;SDS011;6303;51.504;6.300;2022-12-19T00:35:12;7.68;;;6.03;;
12476;SDS011;6303;51.504;6.300;2022-12-19T00:37:41;8.15;;;6.20;;
12476;SDS011;6303;51.504;6.300;2022-12-19T00:40:09;7.45;;;6.53;;
12476;SDS011;6303;51.504;6.300;2022-12-19T00:42:37;8.27;;;6.57;;
12476;SDS011;6303;51.504;6.300;2022-12-19T00:45:04;7.60;;;6.30;;
12476;SDS011;6303;51.504;6.300;2022-12-19T00:47:32;8.05;;;6.80;;
12476;SDS011;6303;51.504;6.300;2022-12-19T00:49:59;7.65;;;6.18;;
12476;SDS011;6303;51.504;6.300;2022-12-19T00:52:26;7.30;;;6.25;;
12476;SDS011;6303;51.504;6.300;2022-12-19T00:54:57;8.02;;;6.32;;
12476;SDS011;6303;51.504;6.300;2022-12-19T00:57:24;7.28;;;6.22;;
12476;SDS011;6303;51.504;6.300;2022-12-19T00:59:51;7.63;;;6.82;;
12476;SDS011;6303;51.504;6.300;2022-12-19T01:02:18;8.18;;;6.68;;
12476;SDS011;6303;51.504;6.300;2022-12-19T01:04:45;8.10;;;6.85;;
12476;SDS011;6303;51.504;6.300;2022-12-19T01:07:12;8.68;;;7.22;;
12476;SDS011;6303;51.504;6.300;2022-12-19T01:09:39;8.93;;;6.72;;
12476;SDS011;6303;51.504;6.300;2022-12-19T01:12:10;7.20;;;6.30;;
12476;SDS011;6303;51.504;6.300;2022-12-19T01:14:55;7.88;;;6.43;;
12476;SDS011;6303;51.504;6.300;2022-12-19T01:17:22;8.55;;;7.00;;
12476;SDS011;6303;51.504;6.300;2022-12-19T01:19:51;7.65;;;6.40;;
12476;SDS011;6303;51.504;6.300;2022-12-19T01:22:18;7.95;;;6.60;;
12476;SDS011;6303;51.504;6.300;2022-12-19T01:24:45;7.45;;;6.05;;
12476;SDS011;6303;51.504;6.300;2022-12-19T01:27:15;8.85;;;6.30;;
12476;SDS011;6303;51.504;6.300;2022-12-19T01:29:42;7.72;;;6.30;;
12476;SDS011;6303;51.504;6.300;2022-12-19T01:32:09;7.75;;;6.47;;
12476;SDS011;6303;51.504;6.300;2022-12-19T01:34:36;9.00;;;6.47;;
12476;SDS011;6303;51.504;6.300;2022-12-19T01:37:03;8.45;;;6.53;;
12476;SDS011;6303;51.504;6.300;2022-12-19T01:39:30;7.97;;;6.20;;
12476;SDS011;6303;51.504;6.300;2022-12-19T01:41:57;8.70;;;7.00;;
12476;SDS011;6303;51.504;6.300;2022-12-19T01:44:25;8.05;;;6.55;;
12476;SDS011;6303;51.504;6.300;2022-12-19T01:46:53;7.65;;;6.55;;
12476;SDS011;6303;51.504;6.300;2022-12-19T01:49:24;7.80;;;6.63;;
12476;SDS011;6303;51.504;6.300;2022-12-19T01:51:56;8.25;;;6.68;;
12476;SDS011;6303;51.504;6.300;2022-12-19T01:54:25;8.88;;;6.65;;
12476;SDS011;6303;51.504;6.300;2022-12-19T01:56:58;8.75;;;7.18;;
12476;SDS011;6303;51.504;6.300;2022-12-19T01:59:30;8.27;;;6.60;;
12476;SDS011;6303;51.504;6.300;2022-12-19T02:02:06;8.57;;;6.97;;
12476;SDS011;6303;51.504;6.300;2022-12-19T02:04:37;9.25;;;6.88;;
12476;SDS011;6303;51.504;6.300;2022-12-19T02:07:06;8.23;;;6.75;;
12476;SDS011;6303;51.504;6.300;2022-12-19T02:09:34;8.55;;;6.40;;
12476;SDS011;6303;51.504;6.300;2022-12-19T02:12:03;7.53;;;6.57;;
12476;SDS011;6303;51.504;6.300;2022-12-19T02:14:36;8.55;;;6.32;;
12476;SDS011;6303;51.504;6.300;2022-12-19T02:17:05;8.30;;;6.50;;
12476;SDS011;6303;51.504;6.300;2022-12-19T02:22:32;8.60;;;6.70;;
12476;SDS011;6303;51.504;6.300;2022-12-19T02:25:26;7.70;;;6.20;;
12476;SDS011;6303;51.504;6.300;2022-12-19T02:28:28;7.05;;;6.20;;
12476;SDS011;6303;51.504;6.300;2022-12-19T02:31:09;8.07;;;6.50;;
12476;SDS011;6303;51.504;6.300;2022-12-19T02:33:43;7.72;;;6.40;;
12476;SDS011;6303;51.504;6.300;2022-12-19T02:36:17;7.97;;;6.53;;
12476;SDS011;6303;51.504;6.300;2022-12-19T02:38:49;8.20;;;6.68;;
12476;SDS011;6303;51.504;6.300;2022-12-19T02:41:23;7.68;;;6.65;;
12476;SDS011;6303;51.504;6.300;2022-12-19T02:43:58;7.50;;;6.47;;
12476;SDS011;6303;51.504;6.300;2022-12-19T02:46:30;9.27;;;6.55;;
12476;SDS011;6303;51.504;6.300;2022-12-19T02:48:59;8.02;;;6.68;;
12476;SDS011;6303;51.504;6.300;2022-12-19T02:51:26;7.93;;;6.40;;
12476;SDS011;6303;51.504;6.300;2022-12-19T02:53:53;8.15;;;6.50;;
12476;SDS011;6303;51.504;6.300;2022-12-19T02:56:24;8.10;;;6.00;;
12476;SDS011;6303;51.504;6.300;2022-12-19T02:59:13;6.72;;;5.95;;
12476;SDS011;6303;51.504;6.300;2022-12-19T03:01:54;8.50;;;6.45;;
12476;SDS011;6303;51.504;6.300;2022-12-19T03:04:34;7.70;;;6.18;;
12476;SDS011;6303;51.504;6.300;2022-12-19T03:07:11;7.93;;;6.60;;
12476;SDS011;6303;51.504;6.300;2022-12-19T03:09:45;7.97;;;5.80;;
12476;SDS011;6303;51.504;6.300;2022-12-19T03:12:20;8.02;;;5.95;;
12476;SDS011;6303;51.504;6.300;2022-12-19T03:14:54;7.68;;;5.97;;
12476;SDS011;6303;51.504;6.300;2022-12-19T03:17:25;8.48;;;6.20;;
12476;SDS011;6303;51.504;6.300;2022-12-19T03:19:53;6.97;;;5.85;;
12476;SDS011;6303;51.504;6.300;2022-12-19T03:22:21;7.50;;;6.10;;
12476;SDS011;6303;51.504;6.300;2022-12-19T03:24:48;7.03;;;6.10;;
12476;SDS011;6303;51.504;6.300;2022-12-19T03:27:17;7.32;;;5.82;;
12476;SDS011;6303;51.504;6.300;2022-12-19T03:29:50;8.00;;;6.72;;
12476;SDS011;6303;51.504;6.300;2022-12-19T03:32:22;8.30;;;5.97;;
12476;SDS011;6303;51.504;6.300;2022-12-19T03:34:54;8.20;;;6.35;;
12476;SDS011;6303;51.504;6.300;2022-12-19T03:37:25;6.75;;;5.85;;
12476;SDS011;6303;51.504;6.300;2022-12-19T03:39:57;7.40;;;6.13;;
12476;SDS011;6303;51.504;6.300;2022-12-19T03:42:26;7.38;;;6.25;;
12476;SDS011;6303;51.504;6.300;2022-12-19T03:45:14;8.52;;;5.85;;
12476;SDS011;6303;51.504;6.300;2022-12-19T03:47:46;7.35;;;5.97;;
12476;SDS011;6303;51.504;6.300;2022-12-19T03:50:18;7.82;;;6.53;;
12476;SDS011;6303;51.504;6.300;2022-12-19T03:52:46;8.30;;;6.70;;
12476;SDS011;6303;51.504;6.300;2022-12-19T03:55:20;7.47;;;6.10;;
12476;SDS011;6303;51.504;6.300;2022-12-19T03:57:53;8.70;;;6.00;;
12476;SDS011;6303;51.504;6.300;2022-12-19T04:00:23;6.85;;;5.50;;
12476;SDS011;6303;51.504;6.300;2022-12-19T04:02:51;8.18;;;6.43;;
12476;SDS011;6303;51.504;6.300;2022-12-19T04:05:23;7.65;;;5.90;;
12476;SDS011;6303;51.504;6.300;2022-12-19T04:07:52;7.40;;;5.80;;
12476;SDS011;6303;51.504;6.300;2022-12-19T04:10:22;6.78;;;5.90;;
12476;SDS011;6303;51.504;6.300;2022-12-19T04:12:52;7.68;;;5.85;;
12476;SDS011;6303;51.504;6.300;2022-12-19T04:15:28;8.48;;;6.35;;
12476;SDS011;6303;51.504;6.300;2022-12-19T04:17:59;7.30;;;6.20;;
12476;SDS011;6303;51.504;6.300;2022-12-19T04:20:32;7.82;;;6.05;;
12476;SDS011;6303;51.504;6.300;2022-12-19T04:23:05;8.18;;;6.35;;
12476;SDS011;6303;51.504;6.300;2022-12-19T04:25:36;7.25;;;6.20;;
12476;SDS011;6303;51.504;6.300;2022-12-19T04:28:08;6.53;;;5.68;;
12476;SDS011;6303;51.504;6.300;2022-12-19T04:30:39;6.60;;;5.55;;
12476;SDS011;6303;51.504;6.300;2022-12-19T04:33:08;7.88;;;5.55;;
12476;SDS011;6303;51.504;6.300;2022-12-19T04:35:36;6.82;;;5.55;;
12476;SDS011;6303;51.504;6.300;2022-12-19T04:38:03;6.35;;;5.55;;
12476;SDS011;6303;51.504;6.300;2022-12-19T04:40:32;6.57;;;5.88;;
12476;SDS011;6303;51.504;6.300;2022-12-19T04:42:59;6.07;;;5.43;;
12476;SDS011;6303;51.504;6.300;2022-12-19T04:45:26;8.30;;;6.40;;
12476;SDS011;6303;51.504;6.300;2022-12-19T04:47:53;6.72;;;5.63;;
12476;SDS011;6303;51.504;6.300;2022-12-19T04:50:20;6.57;;;5.72;;
12476;SDS011;6303;51.504;6.300;2022-12-19T04:52:49;7.53;;;6.03;;
12476;SDS011;6303;51.504;6.300;2022-12-19T04:55:16;6.05;;;5.43;;
12476;SDS011;6303;51.504;6.300;2022-12-19T04:57:43;6.05;;;5.45;;
12476;SDS011;6303;51.504;6.300;2022-12-19T05:00:10;6.38;;;5.40;;
12476;SDS011;6303;51.504;6.300;2022-12-19T05:02:38;6.55;;;5.85;;
12476;SDS011;6303;51.504;6.300;2022-12-19T05:05:05;5.88;;;5.28;;
12476;SDS011;6303;51.504;6.300;2022-12-19T05:07:32;6.95;;;6.00;;
12476;SDS011;6303;51.504;6.300;2022-12-19T05:10:01;6.13;;;5.07;;
12476;SDS011;6303;51.504;6.300;2022-12-19T05:12:28;5.88;;;5.00;;
12476;SDS011;6303;51.504;6.300;2022-12-19T05:14:55;6.15;;;5.40;;
12476;SDS011;6303;51.504;6.300;2022-12-19T05:17:22;5.63;;;4.70;;
12476;SDS011;6303;51.504;6.300;2022-12-19T05:19:49;5.53;;;4.93;;
12476;SDS011;6303;51.504;6.300;2022-12-19T05:22:16;6.22;;;5.28;;
12476;SDS011;6303;51.504;6.300;2022-12-19T05:24:43;6.88;;;5.68;;
12476;SDS011;6303;51.504;6.300;2022-12-19T05:27:11;5.93;;;5.28;;
12476;SDS011;6303;51.504;6.300;2022-12-19T05:29:38;6.32;;;5.68;;
12476;SDS011;6303;51.504;6.300;2022-12-19T05:32:05;6.35;;;5.35;;
12476;SDS011;6303;51.504;6.300;2022-12-19T05:34:32;6.00;;;4.95;;
12476;SDS011;6303;51.504;6.300;2022-12-19T05:36:59;6.05;;;5.30;;
12476;SDS011;6303;51.504;6.300;2022-12-19T05:39:27;5.63;;;4.82;;
12476;SDS011;6303;51.504;6.300;2022-12-19T05:41:54;6.25;;;5.25;;
12476;SDS011;6303;51.504;6.300;2022-12-19T05:44:23;6.13;;;5.22;;
12476;SDS011;6303;51.504;6.300;2022-12-19T05:46:50;6.50;;;5.03;;
12476;SDS011;6303;51.504;6.300;2022-12-19T05:49:17;6.75;;;4.57;;
12476;SDS011;6303;51.504;6.300;2022-12-19T05:51:44;5.35;;;4.85;;
12476;SDS011;6303;51.504;6.300;2022-12-19T05:54:11;5.50;;;4.78;;
12476;SDS011;6303;51.504;6.300;2022-12-19T05:56:38;7.10;;;5.38;;
12476;SDS011;6303;51.504;6.300;2022-12-19T05:59:05;6.13;;;5.15;;
12476;SDS011;6303;51.504;6.300;2022-12-19T06:01:33;5.63;;;5.03;;
12476;SDS011;6303;51.504;6.300;2022-12-19T06:04:00;5.78;;;5.13;;
12476;SDS011;6303;51.504;6.300;2022-12-19T06:06:28;5.57;;;4.95;;
12476;SDS011;6303;51.504;6.300;2022-12-19T06:08:56;6.20;;;5.20;;
12476;SDS011;6303;51.504;6.300;2022-12-19T06:11:24;5.93;;;4.82;;
12476;SDS011;6303;51.504;6.300;2022-12-19T06:13:52;6.75;;;5.30;;
12476;SDS011;6303;51.504;6.300;2022-12-19T06:16:20;7.82;;;5.30;;
12476;SDS011;6303;51.504;6.300;2022-12-19T06:18:49;6.57;;;5.53;;
12476;SDS011;6303;51.504;6.300;2022-12-19T06:21:16;6.85;;;5.30;;
12476;SDS011;6303;51.504;6.300;2022-12-19T06:23:45;5.57;;;4.68;;
12476;SDS011;6303;51.504;6.300;2022-12-19T06:26:13;6.78;;;5.43;;
12476;SDS011;6303;51.504;6.300;2022-12-19T06:28:42;6.28;;;4.85;;
12476;SDS011;6303;51.504;6.300;2022-12-19T06:31:09;6.28;;;5.00;;
12476;SDS011;6303;51.504;6.300;2022-12-19T06:33:37;9.55;;;5.50;;
12476;SDS011;6303;51.504;6.300;2022-12-19T06:36:06;8.93;;;5.63;;
12476;SDS011;6303;51.504;6.300;2022-12-19T06:38:36;12.50;;;5.97;;
12476;SDS011;6303;51.504;6.300;2022-12-19T06:41:03;13.40;;;6.10;;
12476;SDS011;6303;51.504;6.300;2022-12-19T06:44:00;12.27;;;6.20;;
12476;SDS011;6303;51.504;6.300;2022-12-19T06:46:29;10.57;;;5.70;;
12476;SDS011;6303;51.504;6.300;2022-12-19T06:48:57;9.25;;;6.13;;
12476;SDS011;6303;51.504;6.300;2022-12-19T06:51:26;10.88;;;5.97;;
12476;SDS011;6303;51.504;6.300;2022-12-19T06:53:53;16.55;;;6.07;;
12476;SDS011;6303;51.504;6.300;2022-12-19T06:56:20;11.63;;;5.97;;
12476;SDS011;6303;51.504;6.300;2022-12-19T06:58:48;11.05;;;5.93;;
12476;SDS011;6303;51.504;6.300;2022-12-19T07:01:15;11.18;;;6.05;;
12476;SDS011;6303;51.504;6.300;2022-12-19T07:03:43;10.80;;;6.00;;
12476;SDS011;6303;51.504;6.300;2022-12-19T07:06:11;11.93;;;5.97;;
12476;SDS011;6303;51.504;6.300;2022-12-19T07:08:40;9.30;;;6.03;;
12476;SDS011;6303;51.504;6.300;2022-12-19T07:11:07;13.18;;;6.15;;
12476;SDS011;6303;51.504;6.300;2022-12-19T07:13:34;9.70;;;5.72;;
12476;SDS011;6303;51.504;6.300;2022-12-19T07:16:02;10.40;;;5.78;;
12476;SDS011;6303;51.504;6.300;2022-12-19T07:18:30;9.25;;;6.00;;
12476;SDS011;6303;51.504;6.300;2022-12-19T07:21:01;9.00;;;5.78;;
12476;SDS011;6303;51.504;6.300;2022-12-19T07:23:28;12.00;;;6.53;;
12476;SDS011;6303;51.504;6.300;2022-12-19T07:25:57;12.77;;;6.82;;
12476;SDS011;6303;51.504;6.300;2022-12-19T07:28:25;9.90;;;6.50;;
12476;SDS011;6303;51.504;6.300;2022-12-19T07:30:52;9.52;;;5.50;;
12476;SDS011;6303;51.504;6.300;2022-12-19T07:33:19;10.38;;;6.32;;
12476;SDS011;6303;51.504;6.300;2022-12-19T07:35:46;9.93;;;6.07;;
12476;SDS011;6303;51.504;6.300;2022-12-19T07:38:13;7.78;;;6.07;;
12476;SDS011;6303;51.504;6.300;2022-12-19T07:40:40;7.35;;;5.25;;
12476;SDS011;6303;51.504;6.300;2022-12-19T07:43:09;6.45;;;5.47;;
12476;SDS011;6303;51.504;6.300;2022-12-19T07:45:36;8.35;;;5.97;;
12476;SDS011;6303;51.504;6.300;2022-12-19T07:48:06;8.00;;;5.75;;
12476;SDS011;6303;51.504;6.300;2022-12-19T07:50:33;12.63;;;5.63;;
12476;SDS011;6303;51.504;6.300;2022-12-19T07:53:00;8.23;;;5.28;;
12476;SDS011;6303;51.504;6.300;2022-12-19T07:55:27;7.05;;;5.20;;
12476;SDS011;6303;51.504;6.300;2022-12-19T07:57:54;7.47;;;5.30;;
12476;SDS011;6303;51.504;6.300;2022-12-19T08:00:23;6.53;;;4.97;;
12476;SDS011;6303;51.504;6.300;2022-12-19T08:02:50;6.95;;;5.15;;
12476;SDS011;6303;51.504;6.300;2022-12-19T08:05:17;7.70;;;5.53;;
12476;SDS011;6303;51.504;6.300;2022-12-19T08:07:44;6.40;;;5.30;;
12476;SDS011;6303;51.504;6.300;2022-12-19T08:10:11;7.00;;;5.38;;
12476;SDS011;6303;51.504;6.300;2022-12-19T08:12:39;7.00;;;5.50;;
12476;SDS011;6303;51.504;6.300;2022-12-19T08:15:06;8.27;;;5.78;;
12476;SDS011;6303;51.504;6.300;2022-12-19T08:17:35;7.40;;;5.53;;
12476;SDS011;6303;51.504;6.300;2022-12-19T08:20:03;6.63;;;5.15;;
12476;SDS011;6303;51.504;6.300;2022-12-19T08:22:31;8.02;;;5.95;;
12476;SDS011;6303;51.504;6.300;2022-12-19T08:24:58;7.50;;;5.60;;
12476;SDS011;6303;51.504;6.300;2022-12-19T08:27:25;6.95;;;5.28;;
12476;SDS011;6303;51.504;6.300;2022-12-19T08:29:52;7.70;;;5.32;;
12476;SDS011;6303;51.504;6.300;2022-12-19T08:32:19;5.85;;;4.88;;
12476;SDS011;6303;51.504;6.300;2022-12-19T08:34:48;9.13;;;5.32;;
12476;SDS011;6303;51.504;6.300;2022-12-19T08:37:15;7.22;;;5.32;;
12476;SDS011;6303;51.504;6.300;2022-12-19T08:39:42;6.72;;;5.07;;
12476;SDS011;6303;51.504;6.300;2022-12-19T08:42:09;6.95;;;4.80;;
12476;SDS011;6303;51.504;6.300;2022-12-19T08:44:36;6.45;;;5.03;;
12476;SDS011;6303;51.504;6.300;2022-12-19T08:47:03;6.47;;;4.82;;
12476;SDS011;6303;51.504;6.300;2022-12-19T08:49:30;6.78;;;5.28;;
12476;SDS011;6303;51.504;6.300;2022-12-19T08:51:58;5.70;;;5.10;;
12476;SDS011;6303;51.504;6.300;2022-12-19T08:54:25;5.70;;;4.55;;
12476;SDS011;6303;51.504;6.300;2022-12-19T08:56:52;6.13;;;4.80;;
12476;SDS011;6303;51.504;6.300;2022-12-19T08:59:20;7.63;;;4.75;;
12476;SDS011;6303;51.504;6.300;2022-12-19T09:01:47;6.13;;;4.43;;
12476;SDS011;6303;51.504;6.300;2022-12-19T09:04:13;6.20;;;4.70;;
12476;SDS011;6303;51.504;6.300;2022-12-19T09:06:40;4.97;;;4.20;;
12476;SDS011;6303;51.504;6.300;2022-12-19T09:09:09;5.97;;;4.63;;
12476;SDS011;6303;51.504;6.300;2022-12-19T09:11:36;5.38;;;4.50;;
12476;SDS011;6303;51.504;6.300;2022-12-19T09:14:03;5.05;;;4.30;;
12476;SDS011;6303;51.504;6.300;2022-12-19T09:16:30;6.13;;;4.43;;
12476;SDS011;6303;51.504;6.300;2022-12-19T09:18:57;5.47;;;4.18;;
12476;SDS011;6303;51.504;6.300;2022-12-19T09:21:25;5.57;;;4.35;;
12476;SDS011;6303;51.504;6.300;2022-12-19T09:23:54;5.50;;;4.25;;
12476;SDS011;6303;51.504;6.300;2022-12-19T09:26:24;5.65;;;4.25;;
12476;SDS011;6303;51.504;6.300;2022-12-19T09:28:52;5.70;;;4.25;;
12476;SDS011;6303;51.504;6.300;2022-12-19T09:31:20;5.57;;;4.70;;
12476;SDS011;6303;51.504;6.300;2022-12-19T09:33:49;5.55;;;4.05;;
12476;SDS011;6303;51.504;6.300;2022-12-19T09:36:17;7.10;;;4.80;;
12476;SDS011;6303;51.504;6.300;2022-12-19T09:38:45;5.30;;;4.32;;
12476;SDS011;6303;51.504;6.300;2022-12-19T09:41:20;4.80;;;4.15;;
12476;SDS011;6303;51.504;6.300;2022-12-19T09:43:59;4.95;;;4.05;;
12476;SDS011;6303;51.504;6.300;2022-12-19T09:46:32;5.43;;;4.35;;
12476;SDS011;6303;51.504;6.300;2022-12-19T09:49:10;5.50;;;4.35;;
12476;SDS011;6303;51.504;6.300;2022-12-19T09:51:40;5.53;;;3.72;;
12476;SDS011;6303;51.504;6.300;2022-12-19T09:54:14;6.88;;;4.25;;
12476;SDS011;6303;51.504;6.300;2022-12-19T09:56:45;5.55;;;4.47;;
12476;SDS011;6303;51.504;6.300;2022-12-19T09:59:17;5.40;;;4.05;;
12476;SDS011;6303;51.504;6.300;2022-12-19T10:01:52;4.97;;;4.00;;
12476;SDS011;6303;51.504;6.300;2022-12-19T10:04:23;5.60;;;4.20;;
12476;SDS011;6303;51.504;6.300;2022-12-19T10:06:51;4.45;;;4.03;;
12476;SDS011;6303;51.504;6.300;2022-12-19T10:09:20;4.80;;;3.97;;
12476;SDS011;6303;51.504;6.300;2022-12-19T10:11:57;5.60;;;4.38;;
12476;SDS011;6303;51.504;6.300;2022-12-19T10:14:35;4.70;;;3.90;;
12476;SDS011;6303;51.504;6.300;2022-12-19T10:17:14;4.78;;;4.22;;
12476;SDS011;6303;51.504;6.300;2022-12-19T10:19:54;4.93;;;4.20;;
12476;SDS011;6303;51.504;6.300;2022-12-19T10:22:48;4.38;;;3.97;;
12476;SDS011;6303;51.504;6.300;2022-12-19T10:25:27;4.55;;;3.65;;
12476;SDS011;6303;51.504;6.300;2022-12-19T10:28:05;5.00;;;4.22;;
12476;SDS011;6303;51.504;6.300;2022-12-19T10:30:42;4.65;;;3.85;;
12476;SDS011;6303;51.504;6.300;2022-12-19T10:33:17;4.72;;;3.95;;
12476;SDS011;6303;51.504;6.300;2022-12-19T10:35:51;4.13;;;3.72;;
12476;SDS011;6303;51.504;6.300;2022-12-19T10:38:21;5.35;;;3.97;;
12476;SDS011;6303;51.504;6.300;2022-12-19T10:40:54;5.28;;;4.22;;
12476;SDS011;6303;51.504;6.300;2022-12-19T10:43:39;5.10;;;4.18;;
12476;SDS011;6303;51.504;6.300;2022-12-19T10:46:14;6.35;;;4.60;;
12476;SDS011;6303;51.504;6.300;2022-12-19T10:48:44;5.43;;;4.22;;
12476;SDS011;6303;51.504;6.300;2022-12-19T10:51:18;4.80;;;3.90;;
12476;SDS011;6303;51.504;6.300;2022-12-19T10:53:51;6.57;;;4.82;;
12476;SDS011;6303;51.504;6.300;2022-12-19T10:56:21;6.28;;;4.47;;
12476;SDS011;6303;51.504;6.300;2022-12-19T10:58:51;6.07;;;4.50;;
12476;SDS011;6303;51.504;6.300;2022-12-19T11:01:23;5.03;;;4.30;;
12476;SDS011;6303;51.504;6.300;2022-12-19T11:03:52;7.88;;;4.63;;
12476;SDS011;6303;51.504;6.300;2022-12-19T11:06:39;5.70;;;4.25;;
12476;SDS011;6303;51.504;6.300;2022-12-19T11:09:15;5.15;;;4.30;;
12476;SDS011;6303;51.504;6.300;2022-12-19T11:11:44;6.53;;;4.35;;
12476;SDS011;6303;51.504;6.300;2022-12-19T11:14:18;5.60;;;4.30;;
12476;SDS011;6303;51.504;6.300;2022-12-19T11:16:47;5.15;;;4.35;;
12476;SDS011;6303;51.504;6.300;2022-12-19T11:19:23;5.85;;;4.32;;
12476;SDS011;6303;51.504;6.300;2022-12-19T11:21:56;6.35;;;4.45;;
12476;SDS011;6303;51.504;6.300;2022-12-19T11:24:27;5.60;;;4.45;;
12476;SDS011;6303;51.504;6.300;2022-12-19T11:26:59;6.18;;;3.90;;
12476;SDS011;6303;51.504;6.300;2022-12-19T11:29:35;5.47;;;4.00;;
12476;SDS011;6303;51.504;6.300;2022-12-19T11:32:20;7.22;;;4.60;;
12476;SDS011;6303;51.504;6.300;2022-12-19T11:34:59;5.65;;;4.30;;
12476;SDS011;6303;51.504;6.300;2022-12-19T11:37:31;6.25;;;4.57;;
12476;SDS011;6303;51.504;6.300;2022-12-19T11:40:05;5.55;;;4.07;;
12476;SDS011;6303;51.504;6.300;2022-12-19T11:42:48;6.13;;;4.30;;
12476;SDS011;6303;51.504;6.300;2022-12-19T11:45:23;6.90;;;4.38;;
12476;SDS011;6303;51.504;6.300;2022-12-19T11:48:05;5.35;;;3.80;;
12476;SDS011;6303;51.504;6.300;2022-12-19T11:50:38;6.68;;;4.60;;
12476;SDS011;6303;51.504;6.300;2022-12-19T11:53:11;6.72;;;3.90;;
12476;SDS011;6303;51.504;6.300;2022-12-19T11:55:42;5.43;;;4.55;;
12476;SDS011;6303;51.504;6.300;2022-12-19T11:58:15;5.13;;;3.90;;
12476;SDS011;6303;51.504;6.300;2022-12-19T12:00:46;5.97;;;4.15;;
12476;SDS011;6303;51.504;6.300;2022-12-19T12:03:28;5.13;;;3.90;;
12476;SDS011;6303;51.504;6.300;2022-12-19T12:06:09;4.50;;;3.78;;
12476;SDS011;6303;51.504;6.300;2022-12-19T12:08:44;5.28;;;3.80;;
12476;SDS011;6303;51.504;6.300;2022-12-19T12:11:24;4.32;;;3.70;;
12476;SDS011;6303;51.504;6.300;2022-12-19T12:14:12;4.78;;;4.00;;
12476;SDS011;6303;51.504;6.300;2022-12-19T12:20:09;5.68;;;3.95;;
12476;SDS011;6303;51.504;6.300;2022-12-19T12:22:47;4.85;;;4.10;;
12476;SDS011;6303;51.504;6.300;2022-12-19T12:25:25;5.68;;;4.43;;
12476;SDS011;6303;51.504;6.300;2022-12-19T12:28:06;5.00;;;3.88;;
12476;SDS011;6303;51.504;6.300;2022-12-19T12:30:51;5.35;;;4.00;;
12476;SDS011;6303;51.504;6.300;2022-12-19T12:33:27;4.55;;;4.00;;
12476;SDS011;6303;51.504;6.300;2022-12-19T12:36:03;4.00;;;3.60;;
12476;SDS011;6303;51.504;6.300;2022-12-19T12:38:43;4.72;;;3.90;;
12476;SDS011;6303;51.504;6.300;2022-12-19T12:41:26;3.97;;;3.47;;
12476;SDS011;6303;51.504;6.300;2022-12-19T12:44:15;4.18;;;3.50;;
12476;SDS011;6303;51.504;6.300;2022-12-19T12:46:43;5.78;;;3.95;;
12476;SDS011;6303;51.504;6.300;2022-12-19T12:49:20;4.43;;;3.83;;
12476;SDS011;6303;51.504;6.300;2022-12-19T12:51:57;3.97;;;3.58;;
12476;SDS011;6303;51.504;6.300;2022-12-19T12:54:26;4.55;;;3.90;;
12476;SDS011;6303;51.504;6.300;2022-12-19T12:56:59;3.90;;;3.50;;
12476;SDS011;6303;51.504;6.300;2022-12-19T12:59:27;4.35;;;3.72;;
12476;SDS011;6303;51.504;6.300;2022-12-19T13:01:55;5.07;;;3.83;;
12476;SDS011;6303;51.504;6.300;2022-12-19T13:04:26;5.10;;;3.97;;
12476;SDS011;6303;51.504;6.300;2022-12-19T13:07:02;5.10;;;4.05;;
12476;SDS011;6303;51.504;6.300;2022-12-19T13:09:44;3.97;;;3.53;;
12476;SDS011;6303;51.504;6.300;2022-12-19T13:12:18;4.55;;;3.70;;
12476;SDS011;6303;51.504;6.300;2022-12-19T13:15:28;5.60;;;3.90;;
12476;SDS011;6303;51.504;6.300;2022-12-19T13:18:13;5.13;;;3.90;;
12476;SDS011;6303;51.504;6.300;2022-12-19T13:21:04;5.10;;;3.88;;
12476;SDS011;6303;51.504;6.300;2022-12-19T13:23:44;4.53;;;4.13;;
12476;SDS011;6303;51.504;6.300;2022-12-19T13:32:07;5.55;;;3.90;;
12476;SDS011;6303;51.504;6.300;2022-12-19T13:34:39;4.93;;;4.10;;
12476;SDS011;6303;51.504;6.300;2022-12-19T13:37:29;4.78;;;4.00;;
12476;SDS011;6303;51.504;6.300;2022-12-19T13:40:13;5.30;;;4.28;;
12476;SDS011;6303;51.504;6.300;2022-12-19T13:42:54;4.53;;;4.10;;
12476;SDS011;6303;51.504;6.300;2022-12-19T13:45:47;4.43;;;4.03;;
12476;SDS011;6303;51.504;6.300;2022-12-19T13:48:19;4.63;;;3.97;;
12476;SDS011;6303;51.504;6.300;2022-12-19T13:50:52;3.78;;;3.38;;
12476;SDS011;6303;51.504;6.300;2022-12-19T13:53:21;4.50;;;3.70;;
12476;SDS011;6303;51.504;6.300;2022-12-19T13:55:53;6.10;;;3.92;;
12476;SDS011;6303;51.504;6.300;2022-12-19T13:58:25;4.15;;;3.75;;
12476;SDS011;6303;51.504;6.300;2022-12-19T14:00:55;4.28;;;3.88;;
12476;SDS011;6303;51.504;6.300;2022-12-19T14:03:30;3.65;;;3.30;;
12476;SDS011;6303;51.504;6.300;2022-12-19T14:06:00;3.78;;;3.47;;
12476;SDS011;6303;51.504;6.300;2022-12-19T14:08:34;3.65;;;3.20;;
12476;SDS011;6303;51.504;6.300;2022-12-19T14:11:05;3.97;;;3.45;;
12476;SDS011;6303;51.504;6.300;2022-12-19T14:13:33;4.47;;;3.95;;
12476;SDS011;6303;51.504;6.300;2022-12-19T14:16:22;4.28;;;3.80;;
12476;SDS011;6303;51.504;6.300;2022-12-19T14:18:49;4.95;;;3.58;;
12476;SDS011;6303;51.504;6.300;2022-12-19T14:21:17;3.95;;;3.40;;
12476;SDS011;6303;51.504;6.300;2022-12-19T14:23:47;4.47;;;3.72;;
12476;SDS011;6303;51.504;6.300;2022-12-19T14:26:18;4.18;;;3.63;;
12476;SDS011;6303;51.504;6.300;2022-12-19T14:28:51;4.82;;;3.63;;
12476;SDS011;6303;51.504;6.300;2022-12-19T14:31:21;4.43;;;3.75;;
12476;SDS011;6303;51.504;6.300;2022-12-19T14:33:50;3.88;;;3.40;;
12476;SDS011;6303;51.504;6.300;2022-12-19T14:36:19;5.32;;;3.70;;
12476;SDS011;6303;51.504;6.300;2022-12-19T14:38:47;4.90;;;3.90;;
12476;SDS011;6303;51.504;6.300;2022-12-19T14:41:29;4.35;;;3.72;;
12476;SDS011;6303;51.504;6.300;2022-12-19T14:44:20;4.10;;;3.70;;
12476;SDS011;6303;51.504;6.300;2022-12-19T14:46:56;4.53;;;4.05;;
12476;SDS011;6303;51.504;6.300;2022-12-19T14:49:29;3.80;;;3.40;;
12476;SDS011;6303;51.504;6.300;2022-12-19T14:51:57;3.92;;;3.47;;
12476;SDS011;6303;51.504;6.300;2022-12-19T14:54:27;3.90;;;3.50;;
12476;SDS011;6303;51.504;6.300;2022-12-19T14:56:56;4.00;;;3.60;;
12476;SDS011;6303;51.504;6.300;2022-12-19T14:59:30;4.75;;;3.53;;
12476;SDS011;6303;51.504;6.300;2022-12-19T15:02:03;3.70;;;3.30;;
12476;SDS011;6303;51.504;6.300;2022-12-19T15:04:41;4.07;;;3.50;;
12476;SDS011;6303;51.504;6.300;2022-12-19T15:07:12;4.32;;;3.50;;
12476;SDS011;6303;51.504;6.300;2022-12-19T15:09:52;4.15;;;3.72;;
12476;SDS011;6303;51.504;6.300;2022-12-19T15:12:26;4.40;;;3.65;;
12476;SDS011;6303;51.504;6.300;2022-12-19T15:15:16;3.40;;;3.10;;
12476;SDS011;6303;51.504;6.300;2022-12-19T15:17:46;4.30;;;3.33;;
12476;SDS011;6303;51.504;6.300;2022-12-19T15:20:15;3.60;;;3.30;;
12476;SDS011;6303;51.504;6.300;2022-12-19T15:22:42;4.35;;;3.60;;
12476;SDS011;6303;51.504;6.300;2022-12-19T15:25:11;4.47;;;3.30;;
12476;SDS011;6303;51.504;6.300;2022-12-19T15:27:42;3.58;;;3.20;;
12476;SDS011;6303;51.504;6.300;2022-12-19T15:30:14;4.10;;;3.42;;
12476;SDS011;6303;51.504;6.300;2022-12-19T15:32:42;4.13;;;3.50;;
12476;SDS011;6303;51.504;6.300;2022-12-19T15:35:10;3.67;;;3.10;;
12476;SDS011;6303;51.504;6.300;2022-12-19T15:37:38;4.20;;;3.80;;